Terminal Aerodrome Forecast
Issued by NWS Binghamton, NY

Home | Current Version | Previous Version | Text Only | Print | Product List | Glossary On
Versions: 1 2 3 4 5 6 7 8 9 10 11 12 13 14 15 16 17 18 19 20 21
000
FTUS41 KBGM 181700
TAFSYR
TAF
KSYR 181725Z 1818/1918 14010KT P6SM BKN180
     FM182100 20010KT P6SM OVC150
     FM190100 28005KT P6SM OVC050
      TEMPO 1902/1906 -SHRA
     FM191300 31010KT P6SM SCT035=

USA.gov is the U.S. government's official web portal to all federal, state and local government web resources and services.